Time;durP1;ratioP1;P1;durP2;ratioP2;P2;SDS_P1;SDS_P2;PMS_P1;PMS_P2;Temp;Humidity;BMP_temperature;BMP_pressure;BME280_temperature;BME280_humidity;BME280_pressure;Samples;Min_cycle;Max_cycle;Signal;HPM_P1;HPM_P2
2021/08/11 00:00:42;;;;;;;27.67;24.97;;;15.00;99.90;;;;;;5054026;28;20455;-70
2021/08/11 00:03:10;;;;;;;29.93;25.20;;;15.00;99.90;;;;;;5054319;28;20491;-69
2021/08/11 00:05:37;;;;;;;28.53;25.73;;;15.00;99.90;;;;;;5056748;28;20459;-69
2021/08/11 00:08:05;;;;;;;28.90;25.80;;;14.90;99.90;;;;;;5055678;28;20799;-69
2021/08/11 00:10:32;;;;;;;28.60;25.53;;;14.90;99.90;;;;;;5058532;28;20451;-69
2021/08/11 00:12:59;;;;;;;26.87;24.40;;;14.80;99.90;;;;;;5050677;28;20999;-69
2021/08/11 00:15:26;;;;;;;25.97;23.77;;;14.70;99.90;;;;;;5053716;28;20482;-69
2021/08/11 00:17:53;;;;;;;25.93;23.73;;;14.60;99.90;;;;;;5062046;28;20817;-69
2021/08/11 00:20:22;;;;;;;24.23;22.03;;;14.70;99.90;;;;;;5056211;28;20471;-69
2021/08/11 00:22:50;;;;;;;22.57;20.63;;;14.70;99.90;;;;;;5057185;28;20745;-68
2021/08/11 00:25:16;;;;;;;24.27;22.03;;;14.60;99.90;;;;;;5049399;28;20452;-70
2021/08/11 00:27:46;;;;;;;24.07;22.03;;;14.50;99.90;;;;;;5055275;28;20479;-69
2021/08/11 00:30:13;;;;;;;21.50;20.10;;;14.50;99.90;;;;;;5055435;28;20546;-68
2021/08/11 00:32:40;;;;;;;21.93;20.37;;;14.40;99.90;;;;;;5051880;28;20464;-69
2021/08/11 00:35:08;;;;;;;22.67;20.80;;;14.40;99.90;;;;;;5055963;28;20444;-70
2021/08/11 00:37:36;;;;;;;22.17;20.67;;;14.40;99.90;;;;;;5053593;28;20823;-70
2021/08/11 00:40:04;;;;;;;23.20;21.17;;;14.40;99.90;;;;;;5048016;28;20463;-68
2021/08/11 00:42:31;;;;;;;21.83;20.43;;;14.40;99.90;;;;;;5055733;28;20964;-69
2021/08/11 00:45:01;;;;;;;23.43;21.40;;;14.40;99.90;;;;;;5054986;28;20788;-68
2021/08/11 00:47:31;;;;;;;22.57;20.30;;;14.30;99.90;;;;;;5060507;28;20486;-71
2021/08/11 00:50:00;;;;;;;21.60;20.23;;;14.30;99.90;;;;;;5056648;28;20487;-69
2021/08/11 00:52:27;;;;;;;21.80;20.20;;;14.20;99.90;;;;;;5056979;28;20561;-69
2021/08/11 00:54:57;;;;;;;22.50;20.47;;;14.10;99.90;;;;;;5052359;28;20462;-69
2021/08/11 00:57:26;;;;;;;23.30;21.57;;;14.00;99.90;;;;;;5055619;28;20994;-71
2021/08/11 00:59:56;;;;;;;21.93;20.43;;;14.00;99.90;;;;;;5055627;28;20464;-68
2021/08/11 01:02:24;;;;;;;24.90;22.93;;;14.00;99.90;;;;;;5056327;28;20455;-71
2021/08/11 01:04:52;;;;;;;25.70;23.40;;;14.00;99.90;;;;;;5053418;28;20988;-68
2021/08/11 01:07:21;;;;;;;24.33;22.07;;;13.90;99.90;;;;;;5060282;28;20477;-69
2021/08/11 01:09:50;;;;;;;23.07;21.47;;;13.90;99.90;;;;;;5058775;28;20458;-70
2021/08/11 01:12:20;;;;;;;24.27;22.07;;;13.90;99.90;;;;;;5060789;28;20807;-70
2021/08/11 01:14:47;;;;;;;23.77;21.77;;;13.90;99.90;;;;;;5065696;28;20480;-69
2021/08/11 01:17:15;;;;;;;24.43;22.43;;;14.00;99.90;;;;;;5063951;28;20482;-69
2021/08/11 01:19:41;;;;;;;24.70;22.60;;;14.00;99.90;;;;;;5059035;28;20762;-69
2021/08/11 01:22:12;;;;;;;25.13;23.20;;;14.00;99.90;;;;;;5060109;28;20462;-69
2021/08/11 01:24:46;;;;;;;23.83;21.67;;;14.00;99.90;;;;;;5059879;28;20643;-68
2021/08/11 01:27:34;;;;;;;23.70;21.47;;;14.00;99.90;;;;;;5051978;28;20513;-69
2021/08/11 01:30:12;;;;;;;23.67;21.60;;;14.10;99.90;;;;;;5062497;28;20443;-68
2021/08/11 01:32:54;;;;;;;23.93;22.03;;;14.10;99.90;;;;;;5059737;28;20954;-68
2021/08/11 01:35:28;;;;;;;22.43;20.83;;;14.20;99.90;;;;;;5056864;28;20950;-69
2021/08/11 01:37:58;;;;;;;25.60;23.40;;;14.20;99.90;;;;;;5056007;28;20463;-68
2021/08/11 01:40:29;;;;;;;27.17;24.77;;;14.30;99.90;;;;;;5060196;28;20511;-69
2021/08/11 01:42:59;;;;;;;27.00;24.47;;;14.30;99.90;;;;;;5060281;28;20923;-71
2021/08/11 01:45:29;;;;;;;27.53;25.00;;;14.30;99.90;;;;;;5058067;28;20462;-70
2021/08/11 01:48:00;;;;;;;25.47;23.47;;;14.40;99.90;;;;;;5051758;28;20578;-69
2021/08/11 01:50:31;;;;;;;26.57;24.07;;;14.40;99.90;;;;;;5059585;28;20970;-69
2021/08/11 01:52:59;;;;;;;28.23;25.90;;;14.40;99.90;;;;;;5058251;28;20452;-69
2021/08/11 01:55:26;;;;;;;27.90;25.20;;;14.40;99.90;;;;;;5055610;28;21029;-70
2021/08/11 01:57:56;;;;;;;26.67;24.10;;;14.50;99.90;;;;;;5057084;28;20459;-70
2021/08/11 02:00:25;;;;;;;28.63;25.40;;;14.60;99.90;;;;;;5059655;28;20452;-69
2021/08/11 02:02:52;;;;;;;26.00;23.50;;;14.60;99.90;;;;;;5057926;28;20467;-71
2021/08/11 02:05:23;;;;;;;26.63;23.93;;;14.70;99.90;;;;;;5055534;28;20452;-69
2021/08/11 02:07:51;;;;;;;27.70;24.37;;;14.70;99.90;;;;;;5060350;28;20498;-69
2021/08/11 02:10:21;;;;;;;24.97;22.67;;;14.70;99.90;;;;;;5057891;28;20455;-69
2021/08/11 02:12:48;;;;;;;19.60;18.30;;;14.70;99.90;;;;;;5060915;28;20456;-69
2021/08/11 02:15:14;;;;;;;21.10;19.70;;;14.50;99.90;;;;;;5057548;28;20471;-68
2021/08/11 02:17:42;;;;;;;21.83;20.37;;;14.30;99.90;;;;;;5058796;28;20462;-68
2021/08/11 02:20:14;;;;;;;21.00;19.50;;;14.20;99.90;;;;;;5055072;28;20658;-69
2021/08/11 02:22:42;;;;;;;23.80;22.10;;;14.10;99.90;;;;;;5056566;28;20460;-69
2021/08/11 02:25:13;;;;;;;23.00;21.10;;;14.00;99.90;;;;;;5055827;28;20466;-69
2021/08/11 02:27:47;;;;;;;23.17;21.30;;;14.00;99.90;;;;;;5057314;28;20476;-69
2021/08/11 02:30:17;;;;;;;24.77;22.47;;;13.90;99.90;;;;;;5060205;28;20462;-69
2021/08/11 02:32:51;;;;;;;21.90;20.50;;;13.90;99.90;;;;;;5050669;28;20458;-69
2021/08/11 02:35:21;;;;;;;21.60;20.00;;;13.80;99.90;;;;;;5059258;28;20481;-68
2021/08/11 02:37:56;;;;;;;22.37;20.90;;;13.70;99.90;;;;;;5057826;28;20459;-70
2021/08/11 02:40:33;;;;;;;23.63;21.73;;;13.60;99.90;;;;;;5057377;28;20451;-68
2021/08/11 02:43:06;;;;;;;21.80;20.30;;;13.50;99.90;;;;;;5060674;28;20455;-68
2021/08/11 02:45:35;;;;;;;21.50;20.20;;;13.50;99.90;;;;;;5060181;28;20450;-68
2021/08/11 02:48:02;;;;;;;23.60;21.50;;;13.50;99.90;;;;;;5057455;28;21048;-70
2021/08/11 02:50:29;;;;;;;23.57;21.80;;;13.40;99.90;;;;;;5056525;28;20475;-71
2021/08/11 02:52:57;;;;;;;25.00;22.30;;;13.40;99.90;;;;;;5055420;28;20539;-67
2021/08/11 02:55:26;;;;;;;23.90;22.20;;;13.40;99.90;;;;;;5058609;28;21025;-68
2021/08/11 02:57:53;;;;;;;23.83;22.10;;;13.40;99.90;;;;;;5060464;28;20456;-68
2021/08/11 03:00:20;;;;;;;23.13;21.50;;;13.40;99.90;;;;;;5059553;28;20459;-69
2021/08/11 03:02:48;;;;;;;25.20;23.30;;;13.30;99.90;;;;;;5052337;28;20478;-70
2021/08/11 03:05:16;;;;;;;24.23;22.53;;;13.20;99.90;;;;;;5062351;28;20439;-70
2021/08/11 03:07:43;;;;;;;24.00;22.30;;;13.20;99.90;;;;;;5058799;28;20489;-68
2021/08/11 03:10:12;;;;;;;25.57;23.23;;;13.20;99.90;;;;;;5054385;28;20456;-69
2021/08/11 03:12:40;;;;;;;23.97;22.10;;;13.10;99.90;;;;;;5057479;28;20456;-68
2021/08/11 03:15:09;;;;;;;23.73;21.80;;;13.10;99.90;;;;;;5053401;28;20978;-69
2021/08/11 03:17:36;;;;;;;22.87;21.23;;;13.10;99.90;;;;;;5058271;28;21162;-69
2021/08/11 03:20:04;;;;;;;25.53;23.20;;;13.10;99.90;;;;;;5060726;28;20554;-69
2021/08/11 03:22:31;;;;;;;24.13;22.20;;;13.20;99.90;;;;;;5050028;28;20456;-68
2021/08/11 03:24:58;;;;;;;24.70;22.60;;;13.30;99.90;;;;;;5049976;28;20491;-68
2021/08/11 03:27:26;;;;;;;26.03;23.47;;;13.20;99.90;;;;;;5056701;28;20482;-68
2021/08/11 03:29:54;;;;;;;25.70;23.20;;;13.10;99.90;;;;;;5055584;28;20471;-69
2021/08/11 03:32:22;;;;;;;24.60;22.50;;;13.10;99.90;;;;;;5056132;28;20502;-70
2021/08/11 03:34:49;;;;;;;26.77;24.63;;;13.10;99.90;;;;;;5057833;28;20467;-70
2021/08/11 03:37:17;;;;;;;25.83;23.30;;;13.10;99.90;;;;;;5052718;28;20459;-68
2021/08/11 03:39:44;;;;;;;23.27;21.43;;;13.10;99.90;;;;;;5056088;28;20544;-68
2021/08/11 03:42:11;;;;;;;23.83;21.90;;;13.00;99.90;;;;;;5057328;28;20456;-71
2021/08/11 03:44:40;;;;;;;25.40;23.10;;;13.00;99.90;;;;;;5054663;28;20456;-70
2021/08/11 03:47:09;;;;;;;26.00;23.23;;;13.00;99.90;;;;;;5059121;28;20983;-69
2021/08/11 03:49:37;;;;;;;23.90;21.93;;;13.00;99.90;;;;;;5057837;28;20973;-69
2021/08/11 03:52:04;;;;;;;24.07;21.87;;;13.10;99.90;;;;;;5058339;28;20464;-68
2021/08/11 03:54:31;;;;;;;22.60;21.00;;;13.00;99.90;;;;;;5058329;28;20491;-69
2021/08/11 03:56:58;;;;;;;23.43;21.57;;;12.90;99.90;;;;;;5056594;28;20467;-69
2021/08/11 03:59:24;;;;;;;24.13;21.87;;;12.90;99.90;;;;;;5051005;28;20539;-69
2021/08/11 04:01:53;;;;;;;22.17;20.47;;;12.80;99.90;;;;;;5055394;28;20967;-69
2021/08/11 04:04:22;;;;;;;24.33;21.63;;;12.90;99.90;;;;;;5047254;28;20464;-70
2021/08/11 04:06:49;;;;;;;21.73;20.23;;;12.80;99.90;;;;;;5055736;28;20465;-69
2021/08/11 04:09:16;;;;;;;25.03;22.67;;;12.80;99.90;;;;;;5053802;28;20491;-69
2021/08/11 04:11:45;;;;;;;24.70;22.70;;;12.70;99.90;;;;;;5058614;28;20447;-69
2021/08/11 04:14:13;;;;;;;25.53;23.57;;;12.70;99.90;;;;;;5059807;28;20459;-69
2021/08/11 04:16:41;;;;;;;24.10;22.53;;;12.70;99.90;;;;;;5060168;28;20993;-71
2021/08/11 04:19:08;;;;;;;23.80;21.80;;;12.70;99.90;;;;;;5053663;28;20440;-70
2021/08/11 04:21:39;;;;;;;24.43;22.50;;;12.60;99.90;;;;;;5048202;28;20529;-68
2021/08/11 04:24:06;;;;;;;23.07;21.40;;;12.60;99.90;;;;;;5051939;28;20938;-68
2021/08/11 04:26:33;;;;;;;25.93;23.47;;;12.60;99.90;;;;;;5054191;28;20470;-69
2021/08/11 04:29:00;;;;;;;27.30;24.63;;;12.70;99.90;;;;;;5058403;28;20503;-68
2021/08/11 04:31:27;;;;;;;23.93;22.03;;;12.70;99.90;;;;;;5060060;28;20452;-71
2021/08/11 04:33:55;;;;;;;23.67;21.87;;;12.80;99.90;;;;;;5048327;28;20541;-68
2021/08/11 04:36:22;;;;;;;25.43;23.43;;;12.70;99.90;;;;;;5051545;28;20471;-69
2021/08/11 04:38:50;;;;;;;24.93;22.83;;;12.80;99.90;;;;;;5054883;28;21053;-69
2021/08/11 04:41:18;;;;;;;24.37;22.33;;;12.90;99.90;;;;;;5060932;28;20471;-69
2021/08/11 04:43:45;;;;;;;25.37;23.17;;;12.90;99.90;;;;;;5048592;28;20479;-67
2021/08/11 04:46:13;;;;;;;25.00;22.97;;;13.00;99.90;;;;;;5056313;28;20459;-68
2021/08/11 04:48:41;;;;;;;27.30;24.90;;;13.00;99.90;;;;;;5047992;28;20472;-67
2021/08/11 04:51:08;;;;;;;24.50;22.67;;;13.10;99.90;;;;;;5052300;28;21002;-68
2021/08/11 04:53:36;;;;;;;23.70;22.00;;;13.20;99.90;;;;;;5054016;28;20460;-68
2021/08/11 04:56:05;;;;;;;23.43;21.63;;;13.20;99.90;;;;;;5048621;28;20460;-68
2021/08/11 04:58:32;;;;;;;24.50;22.80;;;13.20;99.90;;;;;;5049454;28;20462;-68
2021/08/11 05:00:59;;;;;;;24.00;22.30;;;13.20;99.90;;;;;;5050066;28;20455;-68
2021/08/11 05:03:26;;;;;;;23.87;22.03;;;13.30;99.90;;;;;;5054572;28;20482;-68
2021/08/11 05:05:53;;;;;;;27.10;24.93;;;13.40;99.90;;;;;;5051928;28;20953;-68
2021/08/11 05:08:20;;;;;;;25.03;23.10;;;13.50;99.90;;;;;;5048200;28;20478;-68
2021/08/11 05:10:47;;;;;;;23.10;21.30;;;13.60;99.90;;;;;;5057761;28;20461;-67
2021/08/11 05:13:16;;;;;;;22.90;21.40;;;13.70;99.90;;;;;;5061256;28;20451;-67
2021/08/11 05:15:43;;;;;;;23.83;22.07;;;13.80;99.90;;;;;;5052890;28;20551;-68
2021/08/11 05:18:11;;;;;;;23.63;21.93;;;13.90;99.90;;;;;;5056991;28;20456;-69
2021/08/11 05:20:39;;;;;;;23.60;22.00;;;14.00;99.90;;;;;;5050780;28;20465;-69
2021/08/11 05:23:06;;;;;;;24.17;22.30;;;14.20;99.90;;;;;;5053848;28;20471;-70
2021/08/11 05:25:34;;;;;;;22.73;20.87;;;14.40;99.90;;;;;;5053934;28;20454;-68
2021/08/11 05:28:01;;;;;;;23.53;21.73;;;14.50;99.90;;;;;;5053304;28;20462;-68
2021/08/11 05:30:29;;;;;;;24.20;22.50;;;14.70;99.90;;;;;;5050281;28;20955;-67
2021/08/11 05:32:57;;;;;;;24.03;22.13;;;14.90;99.90;;;;;;5049818;28;20455;-68
2021/08/11 05:35:24;;;;;;;24.70;22.77;;;15.00;99.90;;;;;;5049933;28;20470;-68
2021/08/11 05:37:51;;;;;;;25.17;23.20;;;15.10;99.90;;;;;;5053883;28;20460;-68
2021/08/11 05:40:18;;;;;;;22.43;20.83;;;15.30;99.90;;;;;;5056154;28;20459;-71
2021/08/11 05:42:45;;;;;;;22.57;20.80;;;15.50;99.90;;;;;;5053085;28;20458;-67
2021/08/11 05:45:13;;;;;;;23.00;21.40;;;15.60;99.90;;;;;;5049624;28;20468;-67
2021/08/11 05:47:41;;;;;;;26.90;22.27;;;15.70;99.90;;;;;;5052802;28;20459;-68
2021/08/11 05:50:10;;;;;;;25.40;22.97;;;15.80;99.90;;;;;;5050260;28;20851;-69
2021/08/11 05:52:36;;;;;;;24.57;21.67;;;15.90;99.90;;;;;;5061402;28;20464;-69
2021/08/11 05:55:04;;;;;;;24.53;22.63;;;16.00;99.90;;;;;;5056695;28;20765;-68
2021/08/11 05:57:31;;;;;;;25.60;23.13;;;16.10;99.90;;;;;;5054587;28;20877;-68
2021/08/11 05:59:58;;;;;;;25.53;23.37;;;16.00;99.90;;;;;;5050075;28;20475;-71
2021/08/11 06:02:27;;;;;;;25.40;22.73;;;15.90;99.90;;;;;;5054260;28;20464;-68
2021/08/11 06:04:55;;;;;;;26.90;24.10;;;16.00;99.90;;;;;;5063966;28;20483;-69
2021/08/11 06:07:23;;;;;;;26.83;24.40;;;15.90;99.90;;;;;;5054678;28;20452;-68
2021/08/11 06:09:49;;;;;;;27.23;23.87;;;15.90;99.90;;;;;;5056174;28;20844;-70
2021/08/11 06:12:17;;;;;;;25.20;22.87;;;16.00;99.90;;;;;;5061654;28;20471;-70
2021/08/11 06:14:44;;;;;;;25.50;23.60;;;16.10;99.90;;;;;;5056360;28;20468;-68
2021/08/11 06:17:11;;;;;;;25.50;22.83;;;16.10;99.90;;;;;;5058860;28;20483;-68
2021/08/11 06:19:39;;;;;;;26.50;23.93;;;16.20;99.90;;;;;;5055467;28;20459;-70
2021/08/11 06:22:07;;;;;;;25.77;23.80;;;16.20;99.90;;;;;;5063030;28;20465;-68
2021/08/11 06:24:34;;;;;;;27.27;25.00;;;16.20;99.90;;;;;;5057856;28;20460;-70
2021/08/11 06:27:01;;;;;;;27.00;24.60;;;16.40;99.90;;;;;;5051988;28;20458;-68
2021/08/11 06:29:28;;;;;;;26.90;24.30;;;16.40;99.90;;;;;;5061728;28;20482;-69
2021/08/11 06:31:54;;;;;;;27.57;24.93;;;16.40;99.90;;;;;;5059268;28;20459;-69
2021/08/11 06:34:23;;;;;;;26.33;23.30;;;16.50;99.90;;;;;;5050409;28;20489;-68
2021/08/11 06:36:50;;;;;;;24.80;22.77;;;16.60;99.90;;;;;;5052632;28;20464;-69
2021/08/11 06:39:19;;;;;;;28.90;24.57;;;16.70;99.90;;;;;;5050457;28;21051;-68
2021/08/11 06:41:47;;;;;;;24.80;22.70;;;16.60;99.90;;;;;;5056776;28;20462;-69
2021/08/11 06:44:15;;;;;;;32.07;25.17;;;16.70;99.90;;;;;;5059012;28;20499;-69
2021/08/11 06:46:42;;;;;;;25.60;23.40;;;16.90;99.90;;;;;;5060462;28;20439;-68
2021/08/11 06:49:09;;;;;;;25.23;22.93;;;17.00;99.90;;;;;;5057508;28;20483;-68
2021/08/11 06:51:36;;;;;;;27.07;24.17;;;17.10;99.90;;;;;;5052800;28;20465;-69
2021/08/11 06:54:05;;;;;;;26.10;23.50;;;17.20;99.90;;;;;;5059000;28;20957;-70
2021/08/11 06:56:34;;;;;;;28.27;25.37;;;17.40;99.90;;;;;;5054758;28;21008;-68
2021/08/11 06:59:00;;;;;;;25.33;22.70;;;17.50;99.90;;;;;;5050874;28;20938;-68
2021/08/11 07:01:28;;;;;;;25.13;22.93;;;17.60;99.90;;;;;;5063428;28;20471;-69
2021/08/11 07:03:55;;;;;;;28.00;25.00;;;17.70;99.90;;;;;;5060426;28;20847;-68
2021/08/11 07:06:22;;;;;;;27.20;23.87;;;17.70;99.90;;;;;;5050118;28;20460;-69
2021/08/11 07:08:49;;;;;;;33.63;25.83;;;17.80;99.90;;;;;;5054764;28;20823;-70
2021/08/11 07:11:16;;;;;;;41.33;27.90;;;17.80;99.90;;;;;;5055359;28;20949;-67
2021/08/11 07:13:46;;;;;;;36.03;28.40;;;17.80;99.90;;;;;;5062200;28;21096;-68
2021/08/11 07:16:15;;;;;;;28.20;25.30;;;18.00;99.90;;;;;;5053822;28;20491;-68
2021/08/11 07:18:42;;;;;;;27.20;24.30;;;18.10;99.90;;;;;;5057054;28;20816;-68
2021/08/11 07:21:10;;;;;;;28.03;25.20;;;18.20;99.90;;;;;;5055523;28;20464;-67
2021/08/11 07:23:37;;;;;;;24.13;21.67;;;18.30;99.90;;;;;;5058508;28;20482;-70
2021/08/11 07:26:04;;;;;;;26.03;23.53;;;18.20;99.90;;;;;;5054746;28;20942;-68
2021/08/11 07:28:30;;;;;;;27.20;23.97;;;18.10;99.90;;;;;;5052723;28;20860;-70
2021/08/11 07:30:59;;;;;;;28.33;24.40;;;18.30;99.90;;;;;;5057472;28;20497;-69
2021/08/11 07:33:26;;;;;;;41.87;25.57;;;18.30;99.90;;;;;;5063242;28;20455;-67
2021/08/11 07:35:53;;;;;;;27.87;24.87;;;18.50;99.90;;;;;;5055327;28;20466;-71
2021/08/11 07:38:20;;;;;;;26.07;23.70;;;18.60;99.90;;;;;;5052406;28;20459;-70
2021/08/11 07:40:48;;;;;;;28.77;25.17;;;18.80;99.90;;;;;;5055119;28;20458;-68
2021/08/11 07:43:15;;;;;;;26.70;23.67;;;18.80;99.90;;;;;;5053606;28;21051;-68
2021/08/11 07:45:42;;;;;;;26.13;23.40;;;19.00;99.90;;;;;;5056420;28;20454;-71
2021/08/11 07:48:10;;;;;;;24.53;22.07;;;19.00;99.90;;;;;;5052519;28;20969;-67
2021/08/11 07:50:38;;;;;;;22.57;20.67;;;19.30;99.90;;;;;;5052203;28;20489;-68
2021/08/11 07:53:05;;;;;;;21.70;19.93;;;19.60;99.90;;;;;;5052249;28;20548;-68
2021/08/11 07:55:33;;;;;;;22.67;20.67;;;19.80;99.90;;;;;;5048453;28;20958;-68
2021/08/11 07:58:01;;;;;;;21.87;20.07;;;19.50;99.90;;;;;;5048259;28;20516;-70
2021/08/11 08:00:28;;;;;;;22.17;20.47;;;19.70;99.90;;;;;;5049653;28;20459;-69
2021/08/11 08:02:55;;;;;;;22.87;21.07;;;19.80;99.90;;;;;;5051747;28;20455;-68
2021/08/11 08:05:24;;;;;;;22.27;20.47;;;20.00;99.90;;;;;;5049028;28;20965;-70
2021/08/11 08:07:51;;;;;;;21.47;19.73;;;20.00;99.90;;;;;;5050146;28;20822;-71
2021/08/11 08:10:18;;;;;;;21.20;19.40;;;20.30;99.90;;;;;;5048386;28;21239;-69
2021/08/11 08:12:45;;;;;;;21.23;19.63;;;20.50;99.90;;;;;;5054461;28;20465;-69
2021/08/11 08:15:14;;;;;;;22.20;20.53;;;20.80;99.90;;;;;;5049777;28;20546;-70
2021/08/11 08:17:41;;;;;;;19.60;18.20;;;21.20;99.90;;;;;;5048074;28;20832;-68
2021/08/11 08:20:10;;;;;;;20.17;18.43;;;21.50;99.90;;;;;;5043470;28;20803;-71
2021/08/11 08:22:38;;;;;;;21.77;20.20;;;21.80;99.90;;;;;;5049458;28;20459;-70
2021/08/11 08:25:06;;;;;;;20.20;18.90;;;21.80;99.90;;;;;;5053500;28;20469;-69
2021/08/11 08:27:33;;;;;;;21.10;19.43;;;22.10;99.90;;;;;;5053232;28;20988;-69
2021/08/11 08:30:00;;;;;;;20.27;18.73;;;22.30;99.90;;;;;;5051199;28;20483;-69
2021/08/11 08:32:29;;;;;;;21.83;20.37;;;22.20;99.90;;;;;;5049724;28;20459;-69
2021/08/11 08:34:56;;;;;;;20.43;19.00;;;22.20;99.90;;;;;;5051677;28;20509;-69
2021/08/11 08:37:28;;;;;;;21.50;19.50;;;22.60;99.90;;;;;;5050865;28;20988;-69
2021/08/11 08:39:57;;;;;;;22.77;20.33;;;22.90;99.90;;;;;;5048338;28;20486;-69
2021/08/11 08:42:24;;;;;;;21.17;19.30;;;22.70;99.90;;;;;;5055038;28;20460;-69
2021/08/11 08:44:51;;;;;;;18.70;17.43;;;23.30;99.90;;;;;;5055737;28;20463;-72
2021/08/11 08:47:20;;;;;;;21.53;19.53;;;24.10;99.90;;;;;;5048606;28;20887;-70
2021/08/11 08:49:48;;;;;;;19.63;18.10;;;24.40;99.90;;;;;;5044068;28;21001;-69
2021/08/11 08:52:18;;;;;;;19.30;17.90;;;25.20;99.90;;;;;;5054088;28;20473;-70
2021/08/11 08:54:46;;;;;;;19.40;18.10;;;26.10;99.90;;;;;;5050006;28;20916;-69
2021/08/11 08:57:15;;;;;;;20.53;19.20;;;27.30;99.90;;;;;;5052531;28;20455;-69
2021/08/11 08:59:44;;;;;;;20.33;18.40;;;27.90;99.90;;;;;;5050304;28;20810;-71
2021/08/11 09:02:12;;;;;;;21.67;20.07;;;28.70;99.90;;;;;;5059961;28;20905;-71
2021/08/11 09:04:40;;;;;;;20.67;19.37;;;28.30;99.90;;;;;;5049007;28;20550;-72
2021/08/11 09:07:10;;;;;;;19.77;18.47;;;28.40;99.90;;;;;;5049988;28;20491;-71
2021/08/11 09:09:39;;;;;;;20.17;18.87;;;28.40;99.90;;;;;;5053354;28;20581;-70
2021/08/11 09:12:11;;;;;;;23.77;19.93;;;28.40;99.90;;;;;;5047094;28;20969;-69
2021/08/11 09:14:42;;;;;;;20.00;18.70;;;28.40;99.90;;;;;;5043644;28;20459;-69
2021/08/11 09:17:10;;;;;;;20.90;19.10;;;28.60;99.90;;;;;;5052110;28;20492;-69
2021/08/11 09:19:40;;;;;;;20.27;19.07;;;28.60;99.90;;;;;;5050554;28;20474;-68
2021/08/11 09:22:09;;;;;;;19.43;18.30;;;28.10;99.90;;;;;;5052964;28;20462;-69
2021/08/11 09:24:37;;;;;;;20.70;19.00;;;27.50;99.90;;;;;;5051948;28;20460;-69
2021/08/11 09:27:23;;;;;;;21.33;19.70;;;26.70;99.90;;;;;;5047803;28;20471;-69
2021/08/11 09:30:08;;;;;;;19.90;18.57;;;26.70;99.90;;;;;;5047280;28;20578;-69
2021/08/11 09:32:50;;;;;;;21.70;20.20;;;26.60;99.90;;;;;;5046378;28;20463;-70
2021/08/11 09:35:20;;;;;;;21.30;19.40;;;25.30;99.90;;;;;;5059165;28;20451;-69
2021/08/11 09:37:49;;;;;;;19.70;18.30;;;25.70;99.90;;;;;;5054703;28;20478;-69
2021/08/11 09:40:18;;;;;;;20.20;19.00;;;26.30;99.90;;;;;;5053258;28;20460;-70
2021/08/11 09:42:46;;;;;;;21.37;19.73;;;26.80;99.90;;;;;;5057161;28;20505;-70
2021/08/11 09:45:16;;;;;;;21.00;19.57;;;26.20;99.90;;;;;;5052893;28;20629;-70
2021/08/11 09:48:02;;;;;;;20.50;19.30;;;26.70;99.90;;;;;;5049982;28;20463;-69
2021/08/11 09:50:38;;;;;;;22.20;20.70;;;26.80;99.90;;;;;;5058713;28;20566;-71
2021/08/11 09:53:05;;;;;;;20.93;19.67;;;26.20;99.90;;;;;;5053085;28;20482;-70
2021/08/11 09:56:01;;;;;;;20.97;19.50;;;25.60;99.90;;;;;;5050059;28;20451;-73
2021/08/11 09:58:32;;;;;;;21.63;19.73;;;25.70;99.90;;;;;;5060987;28;20712;-72
2021/08/11 10:01:00;;;;;;;21.27;19.80;;;26.10;99.90;;;;;;5054810;28;20458;-70
2021/08/11 10:03:27;;;;;;;21.30;19.80;;;26.30;99.90;;;;;;5056412;28;20459;-72
2021/08/11 10:05:56;;;;;;;21.13;19.63;;;25.70;99.90;;;;;;5056011;28;20447;-70
2021/08/11 10:08:31;;;;;;;18.70;17.53;;;26.10;99.90;;;;;;5050102;28;20459;-70
2021/08/11 10:10:59;;;;;;;19.70;18.50;;;26.50;99.90;;;;;;5048067;28;20512;-74
2021/08/11 10:13:28;;;;;;;18.97;17.30;;;26.60;99.90;;;;;;5049754;28;20531;-70
2021/08/11 10:15:56;;;;;;;20.23;18.83;;;27.00;99.90;;;;;;5053996;28;20483;-70
2021/08/11 10:18:26;;;;;;;19.10;18.03;;;27.30;99.90;;;;;;5050854;28;20459;-72
2021/08/11 10:20:56;;;;;;;18.80;17.60;;;28.20;99.90;;;;;;5052974;28;20467;-70
2021/08/11 10:23:24;;;;;;;18.83;17.67;;;28.70;99.90;;;;;;5046258;28;20464;-70
2021/08/11 10:25:51;;;;;;;19.33;18.13;;;29.70;99.90;;;;;;5056668;28;20467;-70
2021/08/11 10:28:23;;;;;;;18.87;17.87;;;30.40;99.90;;;;;;5049955;28;20842;-70
2021/08/11 10:30:51;;;;;;;18.30;17.20;;;30.60;99.90;;;;;;5053350;28;20474;-70
2021/08/11 10:33:19;;;;;;;18.13;17.20;;;30.80;99.90;;;;;;5049074;28;20772;-71
2021/08/11 10:35:49;;;;;;;19.20;18.20;;;31.00;99.90;;;;;;5053106;28;20460;-73
2021/08/11 10:38:16;;;;;;;17.90;17.00;;;30.90;99.90;;;;;;5051987;28;21005;-71
2021/08/11 10:40:52;;;;;;;19.20;18.23;;;30.30;99.90;;;;;;5058953;28;20478;-72
2021/08/11 10:43:19;;;;;;;18.60;17.50;;;29.80;99.90;;;;;;5053996;28;20459;-71
2021/08/11 10:45:57;;;;;;;19.13;18.13;;;29.50;99.90;;;;;;5054429;28;20456;-70
2021/08/11 10:48:25;;;;;;;19.67;18.50;;;29.80;99.90;;;;;;5055532;28;20463;-69
2021/08/11 10:50:54;;;;;;;18.97;17.93;;;29.90;99.90;;;;;;5056206;28;20526;-73
2021/08/11 10:53:21;;;;;;;19.47;18.47;;;29.30;99.90;;;;;;5055162;28;20483;-73
2021/08/11 10:55:50;;;;;;;18.57;17.47;;;29.90;99.90;;;;;;5050825;28;20467;-70
2021/08/11 10:58:38;;;;;;;19.63;18.33;;;30.00;99.90;;;;;;5054386;28;20456;-70
2021/08/11 11:01:25;;;;;;;18.40;17.30;;;29.10;99.90;;;;;;5048292;28;20508;-70
2021/08/11 11:03:53;;;;;;;18.73;17.53;;;28.10;99.90;;;;;;5050661;28;20458;-70
2021/08/11 11:06:23;;;;;;;18.33;17.20;;;28.10;99.90;;;;;;5053551;28;20558;-68
2021/08/11 11:08:51;;;;;;;17.63;16.70;;;28.00;99.90;;;;;;5048464;28;20464;-68
2021/08/11 11:11:38;;;;;;;18.43;17.23;;;27.90;99.90;;;;;;5048287;28;20499;-73
2021/08/11 11:14:07;;;;;;;18.33;17.13;;;27.90;99.90;;;;;;5047508;28;20454;-68
2021/08/11 11:17:10;;;;;;;17.03;16.10;;;27.80;99.90;;;;;;5061905;28;20992;-69
2021/08/11 11:20:26;;;;;;;17.90;16.93;;;27.30;99.90;;;;;;5050649;28;20467;-72
2021/08/11 11:22:58;;;;;;;17.33;16.23;;;27.40;99.90;;;;;;5046730;28;20559;-69
2021/08/11 11:26:06;;;;;;;17.63;16.43;;;27.50;99.90;;;;;;5051059;28;20456;-72
2021/08/11 11:28:59;;;;;;;16.50;15.70;;;27.10;99.90;;;;;;5052395;28;20459;-70
2021/08/11 11:31:30;;;;;;;18.23;16.73;;;27.80;99.90;;;;;;5049300;28;20499;-69
2021/08/11 11:34:24;;;;;;;18.13;16.93;;;28.00;99.90;;;;;;5052162;28;20969;-69
2021/08/11 11:37:26;;;;;;;18.40;17.30;;;28.70;99.90;;;;;;5051940;28;20940;-72
2021/08/11 11:40:15;;;;;;;18.30;17.13;;;29.70;99.90;;;;;;5050461;28;20461;-70
2021/08/11 11:42:43;;;;;;;17.10;16.10;;;29.50;99.90;;;;;;5053313;28;20467;-70
2021/08/11 11:45:13;;;;;;;17.63;16.47;;;29.20;99.90;;;;;;5051109;28;20459;-69
2021/08/11 11:48:11;;;;;;;19.80;18.67;;;28.80;99.90;;;;;;5053881;28;20463;-70
2021/08/11 11:50:46;;;;;;;18.23;16.87;;;28.40;99.90;;;;;;5049665;28;20495;-69
2021/08/11 11:53:31;;;;;;;18.93;17.83;;;28.60;99.90;;;;;;5045625;28;20808;-70
2021/08/11 11:56:08;;;;;;;19.00;17.90;;;28.90;99.90;;;;;;5049417;28;20508;-70
2021/08/11 11:58:43;;;;;;;18.97;17.87;;;28.80;99.90;;;;;;5045914;28;20811;-69
2021/08/11 12:01:12;;;;;;;19.03;17.83;;;28.40;99.90;;;;;;5051842;28;20490;-69
2021/08/11 12:03:40;;;;;;;17.77;16.77;;;28.40;99.90;;;;;;5052099;28;20548;-70
2021/08/11 12:06:09;;;;;;;18.73;17.63;;;28.80;99.90;;;;;;5047728;28;20466;-73
2021/08/11 12:08:36;;;;;;;17.27;16.30;;;29.50;99.90;;;;;;5052304;28;20464;-70
2021/08/11 12:11:08;;;;;;;17.33;16.40;;;30.00;99.90;;;;;;5051078;28;20981;-73
2021/08/11 12:13:46;;;;;;;18.97;17.87;;;30.40;99.90;;;;;;5052159;28;20491;-70
2021/08/11 12:16:15;;;;;;;19.57;18.40;;;30.50;99.90;;;;;;5049333;28;20486;-69
2021/08/11 12:18:45;;;;;;;19.87;18.70;;;31.00;99.90;;;;;;5053334;28;20970;-71
2021/08/11 12:21:13;;;;;;;19.30;18.10;;;31.30;99.90;;;;;;5049940;28;20487;-72
2021/08/11 12:23:41;;;;;;;19.83;18.63;;;30.80;99.90;;;;;;5052641;28;20479;-70
2021/08/11 12:26:14;;;;;;;18.53;17.43;;;30.10;99.90;;;;;;5048163;28;20797;-68
2021/08/11 12:28:46;;;;;;;18.10;17.10;;;29.90;99.90;;;;;;5053352;28;20466;-68
2021/08/11 12:31:17;;;;;;;18.57;17.47;;;30.20;99.90;;;;;;5046733;28;20492;-68
2021/08/11 12:33:45;;;;;;;18.13;17.03;;;30.40;99.90;;;;;;5050864;28;20470;-68
2021/08/11 12:36:18;;;;;;;18.77;17.77;;;30.60;99.90;;;;;;5049166;28;20451;-68
2021/08/11 12:38:57;;;;;;;18.30;16.80;;;30.80;99.90;;;;;;5048405;28;21016;-68
2021/08/11 12:41:27;;;;;;;17.00;16.00;;;30.90;99.90;;;;;;5051274;28;20901;-70